sensor_id;sensor_type;location;lat;lon;timestamp;temperature;humidity
4376;DHT22;2202;50.866;12.750;2023-02-17T00:01:50;7.60;82.20
4376;DHT22;2202;50.866;12.750;2023-02-17T00:04:17;7.50;81.60
4376;DHT22;2202;50.866;12.750;2023-02-17T00:06:44;7.60;81.60
4376;DHT22;2202;50.866;12.750;2023-02-17T00:09:11;7.60;81.20
4376;DHT22;2202;50.866;12.750;2023-02-17T00:11:38;7.60;81.80
4376;DHT22;2202;50.866;12.750;2023-02-17T00:14:06;7.60;82.20
4376;DHT22;2202;50.866;12.750;2023-02-17T00:16:33;7.60;83.00
4376;DHT22;2202;50.866;12.750;2023-02-17T00:19:01;7.50;83.80
4376;DHT22;2202;50.866;12.750;2023-02-17T00:21:48;7.40;85.40
4376;DHT22;2202;50.866;12.750;2023-02-17T00:24:15;7.30;85.20
4376;DHT22;2202;50.866;12.750;2023-02-17T00:26:42;7.20;86.40
4376;DHT22;2202;50.866;12.750;2023-02-17T00:29:10;7.20;86.40
4376;DHT22;2202;50.866;12.750;2023-02-17T00:31:37;7.20;86.60
4376;DHT22;2202;50.866;12.750;2023-02-17T00:34:04;7.20;86.00
4376;DHT22;2202;50.866;12.750;2023-02-17T00:36:31;7.30;86.40
4376;DHT22;2202;50.866;12.750;2023-02-17T00:38:57;7.20;87.20
4376;DHT22;2202;50.866;12.750;2023-02-17T00:41:26;7.20;86.00
4376;DHT22;2202;50.866;12.750;2023-02-17T00:43:53;7.20;86.00
4376;DHT22;2202;50.866;12.750;2023-02-17T00:46:22;7.20;86.20
4376;DHT22;2202;50.866;12.750;2023-02-17T00:48:49;7.30;85.80
4376;DHT22;2202;50.866;12.750;2023-02-17T00:51:17;7.30;85.40
4376;DHT22;2202;50.866;12.750;2023-02-17T00:53:44;7.30;85.20
4376;DHT22;2202;50.866;12.750;2023-02-17T00:56:12;7.40;85.00
4376;DHT22;2202;50.866;12.750;2023-02-17T00:58:39;7.30;85.20
4376;DHT22;2202;50.866;12.750;2023-02-17T01:01:07;7.30;85.60
4376;DHT22;2202;50.866;12.750;2023-02-17T01:03:36;7.30;85.00
4376;DHT22;2202;50.866;12.750;2023-02-17T01:06:05;7.40;85.00
4376;DHT22;2202;50.866;12.750;2023-02-17T01:08:32;7.40;84.60
4376;DHT22;2202;50.866;12.750;2023-02-17T01:11:00;7.40;84.80
4376;DHT22;2202;50.866;12.750;2023-02-17T01:13:27;7.50;84.60
4376;DHT22;2202;50.866;12.750;2023-02-17T01:15:54;7.50;83.80
4376;DHT22;2202;50.866;12.750;2023-02-17T01:18:22;7.60;83.80
4376;DHT22;2202;50.866;12.750;2023-02-17T01:20:51;7.50;83.60
4376;DHT22;2202;50.866;12.750;2023-02-17T01:23:18;7.60;83.40
4376;DHT22;2202;50.866;12.750;2023-02-17T01:25:46;7.60;83.00
4376;DHT22;2202;50.866;12.750;2023-02-17T01:28:17;7.70;82.60
4376;DHT22;2202;50.866;12.750;2023-02-17T01:30:44;7.60;82.60
4376;DHT22;2202;50.866;12.750;2023-02-17T01:33:11;7.70;83.20
4376;DHT22;2202;50.866;12.750;2023-02-17T01:35:38;7.70;82.60
4376;DHT22;2202;50.866;12.750;2023-02-17T01:38:06;7.60;82.40
4376;DHT22;2202;50.866;12.750;2023-02-17T01:40:33;7.60;82.80
4376;DHT22;2202;50.866;12.750;2023-02-17T01:43:00;7.60;82.80
4376;DHT22;2202;50.866;12.750;2023-02-17T01:45:40;7.70;81.80
4376;DHT22;2202;50.866;12.750;2023-02-17T01:48:12;7.70;82.20
4376;DHT22;2202;50.866;12.750;2023-02-17T01:50:42;7.70;82.40
4376;DHT22;2202;50.866;12.750;2023-02-17T01:53:13;7.70;82.20
4376;DHT22;2202;50.866;12.750;2023-02-17T01:55:40;7.70;82.00
4376;DHT22;2202;50.866;12.750;2023-02-17T01:58:11;7.80;81.40
4376;DHT22;2202;50.866;12.750;2023-02-17T02:00:39;7.80;81.40
4376;DHT22;2202;50.866;12.750;2023-02-17T02:03:08;7.80;81.40
4376;DHT22;2202;50.866;12.750;2023-02-17T02:05:37;7.80;81.40
4376;DHT22;2202;50.866;12.750;2023-02-17T02:08:06;7.80;81.40
4376;DHT22;2202;50.866;12.750;2023-02-17T02:10:34;7.80;81.20
4376;DHT22;2202;50.866;12.750;2023-02-17T02:13:02;7.80;81.40
4376;DHT22;2202;50.866;12.750;2023-02-17T02:15:33;7.80;81.00
4376;DHT22;2202;50.866;12.750;2023-02-17T02:18:30;7.80;81.00
4376;DHT22;2202;50.866;12.750;2023-02-17T02:21:27;7.80;81.40
4376;DHT22;2202;50.866;12.750;2023-02-17T02:24:11;7.70;81.80
4376;DHT22;2202;50.866;12.750;2023-02-17T02:32:57;7.80;81.40
4376;DHT22;2202;50.866;12.750;2023-02-17T02:35:31;7.80;81.80
4376;DHT22;2202;50.866;12.750;2023-02-17T02:38:05;7.80;82.20
4376;DHT22;2202;50.866;12.750;2023-02-17T02:40:40;7.80;81.80
4376;DHT22;2202;50.866;12.750;2023-02-17T02:43:08;7.80;82.40
4376;DHT22;2202;50.866;12.750;2023-02-17T02:45:35;7.80;82.40
4376;DHT22;2202;50.866;12.750;2023-02-17T02:48:04;7.80;82.40
4376;DHT22;2202;50.866;12.750;2023-02-17T02:50:45;7.90;82.00
4376;DHT22;2202;50.866;12.750;2023-02-17T02:53:35;7.90;82.00
4376;DHT22;2202;50.866;12.750;2023-02-17T02:56:14;7.90;82.40
4376;DHT22;2202;50.866;12.750;2023-02-17T02:58:48;7.90;82.60
4376;DHT22;2202;50.866;12.750;2023-02-17T03:01:22;7.90;83.00
4376;DHT22;2202;50.866;12.750;2023-02-17T03:03:59;7.90;83.20
4376;DHT22;2202;50.866;12.750;2023-02-17T03:06:37;7.90;83.20
4376;DHT22;2202;50.866;12.750;2023-02-17T03:09:09;7.90;83.20
4376;DHT22;2202;50.866;12.750;2023-02-17T03:11:37;7.90;83.40
4376;DHT22;2202;50.866;12.750;2023-02-17T03:14:07;7.90;83.40
4376;DHT22;2202;50.866;12.750;2023-02-17T03:16:35;7.90;83.80
4376;DHT22;2202;50.866;12.750;2023-02-17T03:19:04;7.90;83.80
4376;DHT22;2202;50.866;12.750;2023-02-17T03:21:35;7.90;84.00
4376;DHT22;2202;50.866;12.750;2023-02-17T03:24:04;7.80;84.60
4376;DHT22;2202;50.866;12.750;2023-02-17T03:26:31;7.80;84.80
4376;DHT22;2202;50.866;12.750;2023-02-17T03:28:58;7.80;85.00
4376;DHT22;2202;50.866;12.750;2023-02-17T03:31:25;7.80;84.80
4376;DHT22;2202;50.866;12.750;2023-02-17T03:33:52;7.80;85.20
4376;DHT22;2202;50.866;12.750;2023-02-17T03:36:20;7.80;85.20
4376;DHT22;2202;50.866;12.750;2023-02-17T03:38:46;7.80;85.40
4376;DHT22;2202;50.866;12.750;2023-02-17T03:41:13;7.80;85.80
4376;DHT22;2202;50.866;12.750;2023-02-17T03:43:40;7.80;86.40
4376;DHT22;2202;50.866;12.750;2023-02-17T03:46:10;7.80;86.80
4376;DHT22;2202;50.866;12.750;2023-02-17T03:48:37;7.80;87.20
4376;DHT22;2202;50.866;12.750;2023-02-17T03:51:12;7.70;88.20
4376;DHT22;2202;50.866;12.750;2023-02-17T03:53:41;7.70;89.00
4376;DHT22;2202;50.866;12.750;2023-02-17T03:56:09;7.70;89.00
4376;DHT22;2202;50.866;12.750;2023-02-17T03:58:36;7.70;89.60
4376;DHT22;2202;50.866;12.750;2023-02-17T04:01:04;7.70;89.60
4376;DHT22;2202;50.866;12.750;2023-02-17T04:03:31;7.70;90.00
4376;DHT22;2202;50.866;12.750;2023-02-17T04:05:58;7.70;90.10
4376;DHT22;2202;50.866;12.750;2023-02-17T04:08:25;7.70;90.20
4376;DHT22;2202;50.866;12.750;2023-02-17T04:10:55;7.60;90.30
4376;DHT22;2202;50.866;12.750;2023-02-17T04:13:22;7.60;90.40
4376;DHT22;2202;50.866;12.750;2023-02-17T04:15:50;7.60;90.40
4376;DHT22;2202;50.866;12.750;2023-02-17T04:18:17;7.60;90.50
4376;DHT22;2202;50.866;12.750;2023-02-17T04:20:47;7.60;90.40
4376;DHT22;2202;50.866;12.750;2023-02-17T04:23:14;7.60;90.50
4376;DHT22;2202;50.866;12.750;2023-02-17T04:25:41;7.60;90.60
4376;DHT22;2202;50.866;12.750;2023-02-17T04:28:09;7.70;90.70
4376;DHT22;2202;50.866;12.750;2023-02-17T04:30:36;7.60;90.70
4376;DHT22;2202;50.866;12.750;2023-02-17T04:33:03;7.60;91.00
4376;DHT22;2202;50.866;12.750;2023-02-17T04:35:30;7.60;91.20
4376;DHT22;2202;50.866;12.750;2023-02-17T04:37:57;7.60;91.30
4376;DHT22;2202;50.866;12.750;2023-02-17T04:40:24;7.70;91.40
4376;DHT22;2202;50.866;12.750;2023-02-17T04:42:51;7.60;91.50
4376;DHT22;2202;50.866;12.750;2023-02-17T04:45:19;7.60;91.90
4376;DHT22;2202;50.866;12.750;2023-02-17T04:47:46;7.60;91.90
4376;DHT22;2202;50.866;12.750;2023-02-17T04:50:13;7.60;92.00
4376;DHT22;2202;50.866;12.750;2023-02-17T04:52:40;7.60;92.20
4376;DHT22;2202;50.866;12.750;2023-02-17T04:55:07;7.60;92.60
4376;DHT22;2202;50.866;12.750;2023-02-17T04:57:34;7.60;93.00
4376;DHT22;2202;50.866;12.750;2023-02-17T05:00:01;7.50;93.10
4376;DHT22;2202;50.866;12.750;2023-02-17T05:02:29;7.50;93.40
4376;DHT22;2202;50.866;12.750;2023-02-17T05:04:56;7.40;93.70
4376;DHT22;2202;50.866;12.750;2023-02-17T05:07:23;7.40;93.60
4376;DHT22;2202;50.866;12.750;2023-02-17T05:09:50;7.30;93.70
4376;DHT22;2202;50.866;12.750;2023-02-17T05:12:18;7.40;93.60
4376;DHT22;2202;50.866;12.750;2023-02-17T05:14:45;7.40;93.70
4376;DHT22;2202;50.866;12.750;2023-02-17T05:17:12;7.40;93.60
4376;DHT22;2202;50.866;12.750;2023-02-17T05:19:40;7.30;93.60
4376;DHT22;2202;50.866;12.750;2023-02-17T05:22:07;7.30;93.60
4376;DHT22;2202;50.866;12.750;2023-02-17T05:24:34;7.30;93.50
4376;DHT22;2202;50.866;12.750;2023-02-17T05:27:01;7.30;93.10
4376;DHT22;2202;50.866;12.750;2023-02-17T05:29:28;7.30;93.10
4376;DHT22;2202;50.866;12.750;2023-02-17T05:31:55;7.30;92.90
4376;DHT22;2202;50.866;12.750;2023-02-17T05:34:22;7.30;92.90
4376;DHT22;2202;50.866;12.750;2023-02-17T05:36:50;7.40;92.70
4376;DHT22;2202;50.866;12.750;2023-02-17T05:39:17;7.40;92.60
4376;DHT22;2202;50.866;12.750;2023-02-17T05:41:43;7.30;92.70
4376;DHT22;2202;50.866;12.750;2023-02-17T05:44:10;7.40;92.50
4376;DHT22;2202;50.866;12.750;2023-02-17T05:46:37;7.40;92.50
4376;DHT22;2202;50.866;12.750;2023-02-17T05:49:04;7.40;92.40
4376;DHT22;2202;50.866;12.750;2023-02-17T05:51:31;7.40;92.40
4376;DHT22;2202;50.866;12.750;2023-02-17T05:53:59;7.40;92.50
4376;DHT22;2202;50.866;12.750;2023-02-17T05:59:01;7.30;92.70
4376;DHT22;2202;50.866;12.750;2023-02-17T06:01:28;7.40;92.60
4376;DHT22;2202;50.866;12.750;2023-02-17T06:03:55;7.40;92.60
4376;DHT22;2202;50.866;12.750;2023-02-17T06:06:22;7.40;92.50
4376;DHT22;2202;50.866;12.750;2023-02-17T06:08:50;7.40;92.70
4376;DHT22;2202;50.866;12.750;2023-02-17T06:11:18;7.40;92.70
4376;DHT22;2202;50.866;12.750;2023-02-17T06:13:45;7.40;92.80
4376;DHT22;2202;50.866;12.750;2023-02-17T06:16:12;7.40;92.90
4376;DHT22;2202;50.866;12.750;2023-02-17T06:18:38;7.40;92.90
4376;DHT22;2202;50.866;12.750;2023-02-17T06:21:05;7.40;92.90
4376;DHT22;2202;50.866;12.750;2023-02-17T06:23:32;7.40;92.90
4376;DHT22;2202;50.866;12.750;2023-02-17T06:25:59;7.40;92.90
4376;DHT22;2202;50.866;12.750;2023-02-17T06:28:27;7.50;93.00
4376;DHT22;2202;50.866;12.750;2023-02-17T06:30:54;7.40;93.10
4376;DHT22;2202;50.866;12.750;2023-02-17T06:33:21;7.50;93.30
4376;DHT22;2202;50.866;12.750;2023-02-17T06:35:48;7.50;93.10
4376;DHT22;2202;50.866;12.750;2023-02-17T06:38:15;7.50;93.10
4376;DHT22;2202;50.866;12.750;2023-02-17T06:40:42;7.50;93.30
4376;DHT22;2202;50.866;12.750;2023-02-17T06:43:09;7.50;93.30
4376;DHT22;2202;50.866;12.750;2023-02-17T06:45:37;7.50;93.40
4376;DHT22;2202;50.866;12.750;2023-02-17T06:48:04;7.40;93.50
4376;DHT22;2202;50.866;12.750;2023-02-17T06:50:31;7.50;93.60
4376;DHT22;2202;50.866;12.750;2023-02-17T06:52:58;7.50;93.60
4376;DHT22;2202;50.866;12.750;2023-02-17T06:55:25;7.50;93.60
4376;DHT22;2202;50.866;12.750;2023-02-17T06:57:52;7.60;93.50
4376;DHT22;2202;50.866;12.750;2023-02-17T07:00:20;7.60;93.60
4376;DHT22;2202;50.866;12.750;2023-02-17T07:02:48;7.60;93.70
4376;DHT22;2202;50.866;12.750;2023-02-17T07:05:15;7.60;93.60
4376;DHT22;2202;50.866;12.750;2023-02-17T07:07:42;7.60;93.60
4376;DHT22;2202;50.866;12.750;2023-02-17T07:10:09;7.60;93.60
4376;DHT22;2202;50.866;12.750;2023-02-17T07:12:36;7.60;93.70
4376;DHT22;2202;50.866;12.750;2023-02-17T07:15:04;7.60;93.60
4376;DHT22;2202;50.866;12.750;2023-02-17T07:17:31;7.60;93.50
4376;DHT22;2202;50.866;12.750;2023-02-17T07:19:59;7.60;93.60
4376;DHT22;2202;50.866;12.750;2023-02-17T07:22:26;7.60;93.70
4376;DHT22;2202;50.866;12.750;2023-02-17T07:24:53;7.60;93.70
4376;DHT22;2202;50.866;12.750;2023-02-17T07:27:19;7.60;93.80
4376;DHT22;2202;50.866;12.750;2023-02-17T07:29:46;7.60;93.90
4376;DHT22;2202;50.866;12.750;2023-02-17T07:32:13;7.60;93.80
4376;DHT22;2202;50.866;12.750;2023-02-17T07:34:40;7.60;93.80
4376;DHT22;2202;50.866;12.750;2023-02-17T07:37:08;7.60;94.00
4376;DHT22;2202;50.866;12.750;2023-02-17T07:39:35;7.60;94.00
4376;DHT22;2202;50.866;12.750;2023-02-17T07:42:02;7.70;94.00
4376;DHT22;2202;50.866;12.750;2023-02-17T07:44:31;7.70;93.90
4376;DHT22;2202;50.866;12.750;2023-02-17T07:46:58;7.70;93.80
4376;DHT22;2202;50.866;12.750;2023-02-17T07:49:25;7.70;94.00
4376;DHT22;2202;50.866;12.750;2023-02-17T07:51:51;7.70;93.90
4376;DHT22;2202;50.866;12.750;2023-02-17T07:54:20;7.70;93.80
4376;DHT22;2202;50.866;12.750;2023-02-17T07:56:47;7.80;93.60
4376;DHT22;2202;50.866;12.750;2023-02-17T07:59:14;7.80;93.50
4376;DHT22;2202;50.866;12.750;2023-02-17T08:01:41;7.80;93.50
4376;DHT22;2202;50.866;12.750;2023-02-17T08:04:08;7.90;93.40
4376;DHT22;2202;50.866;12.750;2023-02-17T08:06:37;7.80;93.60
4376;DHT22;2202;50.866;12.750;2023-02-17T08:09:04;7.80;93.70
4376;DHT22;2202;50.866;12.750;2023-02-17T08:11:50;7.90;93.50
4376;DHT22;2202;50.866;12.750;2023-02-17T08:14:36;7.80;93.50
4376;DHT22;2202;50.866;12.750;2023-02-17T08:17:03;7.90;93.40
4376;DHT22;2202;50.866;12.750;2023-02-17T08:19:30;7.90;93.40
4376;DHT22;2202;50.866;12.750;2023-02-17T08:21:57;8.00;93.50
4376;DHT22;2202;50.866;12.750;2023-02-17T08:24:24;8.00;93.20
4376;DHT22;2202;50.866;12.750;2023-02-17T08:26:53;8.00;93.20
4376;DHT22;2202;50.866;12.750;2023-02-17T08:29:20;8.00;93.00
4376;DHT22;2202;50.866;12.750;2023-02-17T08:31:51;8.10;92.80
4376;DHT22;2202;50.866;12.750;2023-02-17T08:34:18;8.10;92.90
4376;DHT22;2202;50.866;12.750;2023-02-17T08:36:45;8.10;93.00
4376;DHT22;2202;50.866;12.750;2023-02-17T08:39:14;8.10;93.00
4376;DHT22;2202;50.866;12.750;2023-02-17T08:41:42;8.20;92.90
4376;DHT22;2202;50.866;12.750;2023-02-17T08:44:12;8.20;92.90
4376;DHT22;2202;50.866;12.750;2023-02-17T08:46:40;8.20;92.80
4376;DHT22;2202;50.866;12.750;2023-02-17T08:49:06;8.30;92.50
4376;DHT22;2202;50.866;12.750;2023-02-17T08:51:34;8.30;92.40
4376;DHT22;2202;50.866;12.750;2023-02-17T08:54:03;8.40;92.40
4376;DHT22;2202;50.866;12.750;2023-02-17T08:56:31;8.40;92.50
4376;DHT22;2202;50.866;12.750;2023-02-17T08:58:58;8.40;92.30
4376;DHT22;2202;50.866;12.750;2023-02-17T09:01:26;8.40;92.30
4376;DHT22;2202;50.866;12.750;2023-02-17T09:03:54;8.40;92.30
4376;DHT22;2202;50.866;12.750;2023-02-17T09:06:21;8.40;92.10
4376;DHT22;2202;50.866;12.750;2023-02-17T09:08:49;8.50;92.30
4376;DHT22;2202;50.866;12.750;2023-02-17T09:11:16;8.50;92.00
4376;DHT22;2202;50.866;12.750;2023-02-17T09:13:45;8.60;91.70
4376;DHT22;2202;50.866;12.750;2023-02-17T09:16:12;8.60;91.40
4376;DHT22;2202;50.866;12.750;2023-02-17T09:18:41;8.60;92.10
4376;DHT22;2202;50.866;12.750;2023-02-17T09:21:09;8.80;91.60
4376;DHT22;2202;50.866;12.750;2023-02-17T09:23:36;8.80;91.50
4376;DHT22;2202;50.866;12.750;2023-02-17T09:26:05;8.90;91.50
4376;DHT22;2202;50.866;12.750;2023-02-17T09:28:33;9.00;91.00
4376;DHT22;2202;50.866;12.750;2023-02-17T09:31:07;9.10;90.90
4376;DHT22;2202;50.866;12.750;2023-02-17T09:33:34;8.90;91.10
4376;DHT22;2202;50.866;12.750;2023-02-17T09:36:02;8.90;91.20
4376;DHT22;2202;50.866;12.750;2023-02-17T09:38:29;8.90;91.10
4376;DHT22;2202;50.866;12.750;2023-02-17T09:41:00;9.00;91.00
4376;DHT22;2202;50.866;12.750;2023-02-17T09:43:30;9.00;91.10
4376;DHT22;2202;50.866;12.750;2023-02-17T09:46:00;9.00;91.00
4376;DHT22;2202;50.866;12.750;2023-02-17T09:48:30;9.10;90.80
4376;DHT22;2202;50.866;12.750;2023-02-17T09:50:59;9.00;90.90
4376;DHT22;2202;50.866;12.750;2023-02-17T09:53:35;9.00;91.20
4376;DHT22;2202;50.866;12.750;2023-02-17T09:56:08;9.10;91.10
4376;DHT22;2202;50.866;12.750;2023-02-17T09:58:40;9.10;90.80
4376;DHT22;2202;50.866;12.750;2023-02-17T10:01:12;9.10;90.80
4376;DHT22;2202;50.866;12.750;2023-02-17T10:03:43;9.20;90.80
4376;DHT22;2202;50.866;12.750;2023-02-17T10:06:15;9.10;90.90
4376;DHT22;2202;50.866;12.750;2023-02-17T10:08:48;9.20;90.90
4376;DHT22;2202;50.866;12.750;2023-02-17T10:11:21;9.20;90.50
4376;DHT22;2202;50.866;12.750;2023-02-17T10:13:50;9.30;90.70
4376;DHT22;2202;50.866;12.750;2023-02-17T10:16:22;9.20;90.70
4376;DHT22;2202;50.866;12.750;2023-02-17T10:18:56;9.30;90.70
4376;DHT22;2202;50.866;12.750;2023-02-17T10:21:27;9.30;90.50
4376;DHT22;2202;50.866;12.750;2023-02-17T10:23:57;9.30;90.40
4376;DHT22;2202;50.866;12.750;2023-02-17T10:26:34;9.40;90.50
4376;DHT22;2202;50.866;12.750;2023-02-17T10:29:10;9.50;90.40
4376;DHT22;2202;50.866;12.750;2023-02-17T10:31:43;9.50;90.30
4376;DHT22;2202;50.866;12.750;2023-02-17T10:34:17;9.60;90.20
4376;DHT22;2202;50.866;12.750;2023-02-17T10:36:54;9.60;90.20
4376;DHT22;2202;50.866;12.750;2023-02-17T10:39:34;9.60;90.00
4376;DHT22;2202;50.866;12.750;2023-02-17T10:42:09;9.70;90.10
4376;DHT22;2202;50.866;12.750;2023-02-17T10:44:39;9.80;89.40
4376;DHT22;2202;50.866;12.750;2023-02-17T10:47:08;9.80;89.40
4376;DHT22;2202;50.866;12.750;2023-02-17T10:49:39;9.80;89.00
4376;DHT22;2202;50.866;12.750;2023-02-17T10:52:13;9.70;89.40
4376;DHT22;2202;50.866;12.750;2023-02-17T10:54:47;9.70;89.60
4376;DHT22;2202;50.866;12.750;2023-02-17T10:57:16;9.70;89.80
4376;DHT22;2202;50.866;12.750;2023-02-17T10:59:46;9.70;89.40
4376;DHT22;2202;50.866;12.750;2023-02-17T11:02:17;9.70;89.80
4376;DHT22;2202;50.866;12.750;2023-02-17T11:04:48;9.60;90.00
4376;DHT22;2202;50.866;12.750;2023-02-17T11:07:16;9.60;90.10
4376;DHT22;2202;50.866;12.750;2023-02-17T11:09:49;9.60;90.20
4376;DHT22;2202;50.866;12.750;2023-02-17T11:12:28;9.60;90.30
4376;DHT22;2202;50.866;12.750;2023-02-17T11:14:58;9.60;90.40
4376;DHT22;2202;50.866;12.750;2023-02-17T11:17:34;9.60;90.50
4376;DHT22;2202;50.866;12.750;2023-02-17T11:20:05;9.70;90.40
4376;DHT22;2202;50.866;12.750;2023-02-17T11:22:35;9.70;90.50
4376;DHT22;2202;50.866;12.750;2023-02-17T11:25:18;9.80;90.30
4376;DHT22;2202;50.866;12.750;2023-02-17T11:27:49;9.90;90.00
4376;DHT22;2202;50.866;12.750;2023-02-17T11:30:17;9.80;90.00
4376;DHT22;2202;50.866;12.750;2023-02-17T11:32:44;9.90;90.30
4376;DHT22;2202;50.866;12.750;2023-02-17T11:35:21;9.90;90.60
4376;DHT22;2202;50.866;12.750;2023-02-17T11:37:49;10.00;90.20
4376;DHT22;2202;50.866;12.750;2023-02-17T11:40:28;10.00;90.20
4376;DHT22;2202;50.866;12.750;2023-02-17T11:42:56;10.10;90.10
4376;DHT22;2202;50.866;12.750;2023-02-17T11:45:25;10.20;90.00
4376;DHT22;2202;50.866;12.750;2023-02-17T11:50:43;10.30;89.60
4376;DHT22;2202;50.866;12.750;2023-02-17T11:53:22;10.30;89.20
4376;DHT22;2202;50.866;12.750;2023-02-17T11:56:03;10.30;89.80
4376;DHT22;2202;50.866;12.750;2023-02-17T11:58:46;10.30;90.00
4376;DHT22;2202;50.866;12.750;2023-02-17T12:01:28;10.30;90.00
4376;DHT22;2202;50.866;12.750;2023-02-17T12:04:26;10.30;89.80
4376;DHT22;2202;50.866;12.750;2023-02-17T12:07:09;10.30;90.00
4376;DHT22;2202;50.866;12.750;2023-02-17T12:09:46;10.30;90.20
4376;DHT22;2202;50.866;12.750;2023-02-17T12:12:21;10.40;90.00
4376;DHT22;2202;50.866;12.750;2023-02-17T12:15:09;10.40;90.10
4376;DHT22;2202;50.866;12.750;2023-02-17T12:17:48;10.40;90.20
4376;DHT22;2202;50.866;12.750;2023-02-17T12:20:33;10.30;90.20
4376;DHT22;2202;50.866;12.750;2023-02-17T12:23:13;10.40;90.10
4376;DHT22;2202;50.866;12.750;2023-02-17T12:25:46;10.30;90.20
4376;DHT22;2202;50.866;12.750;2023-02-17T12:28:40;10.20;90.30
4376;DHT22;2202;50.866;12.750;2023-02-17T12:31:20;10.20;90.40
4376;DHT22;2202;50.866;12.750;2023-02-17T12:33:55;10.20;90.20
4376;DHT22;2202;50.866;12.750;2023-02-17T12:36:26;10.20;90.40
4376;DHT22;2202;50.866;12.750;2023-02-17T12:38:58;10.20;90.50
4376;DHT22;2202;50.866;12.750;2023-02-17T12:41:27;10.20;90.40
4376;DHT22;2202;50.866;12.750;2023-02-17T12:44:02;10.30;90.30
4376;DHT22;2202;50.866;12.750;2023-02-17T12:46:33;10.30;90.10
4376;DHT22;2202;50.866;12.750;2023-02-17T12:49:05;10.30;90.10
4376;DHT22;2202;50.866;12.750;2023-02-17T12:51:38;10.40;89.80
4376;DHT22;2202;50.866;12.750;2023-02-17T12:54:11;10.50;89.00
4376;DHT22;2202;50.866;12.750;2023-02-17T12:56:54;10.60;88.80
4376;DHT22;2202;50.866;12.750;2023-02-17T12:59:30;10.60;89.00
4376;DHT22;2202;50.866;12.750;2023-02-17T13:02:01;10.60;88.60
4376;DHT22;2202;50.866;12.750;2023-02-17T13:04:29;10.60;88.80
4376;DHT22;2202;50.866;12.750;2023-02-17T13:09:55;10.70;88.60
4376;DHT22;2202;50.866;12.750;2023-02-17T13:12:36;10.70;88.40
4376;DHT22;2202;50.866;12.750;2023-02-17T13:15:26;10.70;88.60
4376;DHT22;2202;50.866;12.750;2023-02-17T13:17:55;10.70;88.00
4376;DHT22;2202;50.866;12.750;2023-02-17T13:23:27;10.80;88.00
4376;DHT22;2202;50.866;12.750;2023-02-17T13:26:23;10.80;88.20
4376;DHT22;2202;50.866;12.750;2023-02-17T13:28:52;10.80;88.60
4376;DHT22;2202;50.866;12.750;2023-02-17T13:31:23;10.90;87.80
4376;DHT22;2202;50.866;12.750;2023-02-17T13:33:51;10.80;87.60
4376;DHT22;2202;50.866;12.750;2023-02-17T13:36:34;10.90;88.00
4376;DHT22;2202;50.866;12.750;2023-02-17T13:39:03;10.80;87.80
4376;DHT22;2202;50.866;12.750;2023-02-17T13:41:43;10.80;88.20
4376;DHT22;2202;50.866;12.750;2023-02-17T13:44:32;10.90;87.60
4376;DHT22;2202;50.866;12.750;2023-02-17T13:47:02;10.90;87.80
4376;DHT22;2202;50.866;12.750;2023-02-17T13:49:31;10.90;87.40
4376;DHT22;2202;50.866;12.750;2023-02-17T13:52:17;10.90;87.00
4376;DHT22;2202;50.866;12.750;2023-02-17T13:54:54;10.90;87.40
4376;DHT22;2202;50.866;12.750;2023-02-17T13:57:23;10.80;88.00
4376;DHT22;2202;50.866;12.750;2023-02-17T13:59:50;10.90;87.80
4376;DHT22;2202;50.866;12.750;2023-02-17T14:02:19;10.90;87.40
4376;DHT22;2202;50.866;12.750;2023-02-17T14:04:47;11.00;87.20
4376;DHT22;2202;50.866;12.750;2023-02-17T14:07:13;11.00;87.00
4376;DHT22;2202;50.866;12.750;2023-02-17T14:09:40;11.00;86.80
4376;DHT22;2202;50.866;12.750;2023-02-17T14:12:18;10.90;87.00
4376;DHT22;2202;50.866;12.750;2023-02-17T14:14:48;10.90;87.60
4376;DHT22;2202;50.866;12.750;2023-02-17T14:17:28;11.00;87.80
4376;DHT22;2202;50.866;12.750;2023-02-17T14:19:57;11.00;87.80
4376;DHT22;2202;50.866;12.750;2023-02-17T14:22:27;10.90;87.80
4376;DHT22;2202;50.866;12.750;2023-02-17T14:24:59;10.90;87.60
4376;DHT22;2202;50.866;12.750;2023-02-17T14:27:27;10.90;88.20
4376;DHT22;2202;50.866;12.750;2023-02-17T14:29:53;10.90;88.20
4376;DHT22;2202;50.866;12.750;2023-02-17T14:32:30;10.80;88.40
4376;DHT22;2202;50.866;12.750;2023-02-17T14:35:18;10.80;88.80
4376;DHT22;2202;50.866;12.750;2023-02-17T14:37:46;10.80;89.00
4376;DHT22;2202;50.866;12.750;2023-02-17T14:40:15;10.90;88.80
4376;DHT22;2202;50.866;12.750;2023-02-17T14:42:42;10.80;89.00
4376;DHT22;2202;50.866;12.750;2023-02-17T14:45:09;10.80;89.40
4376;DHT22;2202;50.866;12.750;2023-02-17T14:47:38;10.80;89.40
4376;DHT22;2202;50.866;12.750;2023-02-17T14:50:05;10.80;89.80
4376;DHT22;2202;50.866;12.750;2023-02-17T14:52:33;10.80;90.00
4376;DHT22;2202;50.866;12.750;2023-02-17T14:55:11;10.80;90.20
4376;DHT22;2202;50.866;12.750;2023-02-17T14:57:39;10.70;90.20
4376;DHT22;2202;50.866;12.750;2023-02-17T15:00:11;10.70;90.30
4376;DHT22;2202;50.866;12.750;2023-02-17T15:02:39;10.70;90.40
4376;DHT22;2202;50.866;12.750;2023-02-17T15:05:06;10.70;90.50
4376;DHT22;2202;50.866;12.750;2023-02-17T15:07:33;10.70;90.70
4376;DHT22;2202;50.866;12.750;2023-02-17T15:10:00;10.70;90.80
4376;DHT22;2202;50.866;12.750;2023-02-17T15:12:27;10.70;90.80
4376;DHT22;2202;50.866;12.750;2023-02-17T15:14:54;10.70;90.80
4376;DHT22;2202;50.866;12.750;2023-02-17T15:17:21;10.70;90.70
4376;DHT22;2202;50.866;12.750;2023-02-17T15:19:49;10.70;90.70
4376;DHT22;2202;50.866;12.750;2023-02-17T15:22:16;10.70;90.70
4376;DHT22;2202;50.866;12.750;2023-02-17T15:24:43;10.80;90.60
4376;DHT22;2202;50.866;12.750;2023-02-17T15:27:12;10.80;90.60
4376;DHT22;2202;50.866;12.750;2023-02-17T15:29:40;10.80;90.50
4376;DHT22;2202;50.866;12.750;2023-02-17T15:32:14;10.80;90.60
4376;DHT22;2202;50.866;12.750;2023-02-17T15:34:44;10.80;90.50
4376;DHT22;2202;50.866;12.750;2023-02-17T15:37:12;10.80;90.50
4376;DHT22;2202;50.866;12.750;2023-02-17T15:39:39;10.80;90.60
4376;DHT22;2202;50.866;12.750;2023-02-17T15:42:11;10.90;90.40
4376;DHT22;2202;50.866;12.750;2023-02-17T15:44:41;10.90;90.40
4376;DHT22;2202;50.866;12.750;2023-02-17T15:47:13;10.90;90.40
4376;DHT22;2202;50.866;12.750;2023-02-17T15:49:41;10.80;90.50
4376;DHT22;2202;50.866;12.750;2023-02-17T15:52:09;10.90;90.50
4376;DHT22;2202;50.866;12.750;2023-02-17T15:54:39;10.90;90.40
4376;DHT22;2202;50.866;12.750;2023-02-17T15:57:07;10.90;90.40
4376;DHT22;2202;50.866;12.750;2023-02-17T15:59:35;10.80;90.40
4376;DHT22;2202;50.866;12.750;2023-02-17T16:02:08;10.80;90.30
4376;DHT22;2202;50.866;12.750;2023-02-17T16:04:41;10.80;90.30
4376;DHT22;2202;50.866;12.750;2023-02-17T16:07:08;10.80;90.10
4376;DHT22;2202;50.866;12.750;2023-02-17T16:09:34;10.80;90.20
4376;DHT22;2202;50.866;12.750;2023-02-17T16:12:03;10.90;89.80
4376;DHT22;2202;50.866;12.750;2023-02-17T16:14:32;10.90;89.20
4376;DHT22;2202;50.866;12.750;2023-02-17T16:17:00;11.00;89.00
4376;DHT22;2202;50.866;12.750;2023-02-17T16:19:27;11.00;89.00
4376;DHT22;2202;50.866;12.750;2023-02-17T16:21:55;11.00;88.60
4376;DHT22;2202;50.866;12.750;2023-02-17T16:24:22;11.00;88.60
4376;DHT22;2202;50.866;12.750;2023-02-17T16:26:49;11.00;88.40
4376;DHT22;2202;50.866;12.750;2023-02-17T16:29:19;11.00;88.20
4376;DHT22;2202;50.866;12.750;2023-02-17T16:31:46;11.00;88.20
4376;DHT22;2202;50.866;12.750;2023-02-17T16:34:14;11.00;88.40